Logo AVAMET Logo AVAMET
Benvolgut visitant, si us plau, ingressa Recuperar contrasenya
AVAMET paisatges
Union Alcoyana

la Vila Joiosa

Dades diàries. Acumulats / Últims 30 dies disponibles

Data Temperatura (°C) Humitat rel. (%) Pressió rel. (hPa) Vent (km/h) Precipitació
Mínima Mitjana Màxima Amplitud
tèrmica
Mínima Mitjana Màxima Mínima Mitjana Màxima Predom. Mitjana Ràfega
màxima
Total
(mm)
Índex-n
Mínima Mitjana Màxima Mínima Mitjana Màxima n
0 a 1
P0 max
mm 5'
Dades mensuals acumulades fins l'últim dia disponible
04/2024 9,7 13,4 19,9 17,2 18,0 21,3 27,1 17,4 24 62 90 1.006 1.021 1.032   4,3 57,9 0,0
Dades anuals acumulades fins l'últim dia disponible
2024 5,7 11,3 19,9 14,9 13,5 18,7 27,1 21,4 21 64 93 991 1.018 1.038   5,7 83,7 25,4
Últims 30 dies disponibles
14-04-2024 14,0     18,7     23,4 9,4 37 57 70 1.022 1.024 1.027 SO 3,3 25,7 0,0
13-04-2024 13,3     17,3     21,8 8,5 43 58 75 1.025 1.028 1.030 SO 3,6 14,5 0,0
12-04-2024 11,7     16,2     20,4 8,7 49 62 83 1.029 1.031 1.032 OSO 3,9 16,1 0,0
11-04-2024 11,4     15,5     19,6 8,2 65 74 82 1.025 1.028 1.031 SSO 4,6 24,1 0,0
10-04-2024 11,3     15,2     19,2 7,9 42 58 72 1.025 1.028 1.030 NW 4,3 19,3 0,0
09-04-2024 13,2     17,9     21,7 8,5 24 44 55 1.013 1.022 1.029 E 8,9 57,9 0,0
08-04-2024 17,5     19,3     22,7 5,2 40 72 90 1.008 1.011 1.013 S 4,2 41,8 0,0
07-04-2024 19,9     21,7     27,1 7,2 37 53 72 1.012 1.014 1.016 ESE 2,7 20,9 0,0
06-04-2024 14,9     19,6     24,1 9,2 41 58 82 1.014 1.017 1.019 NW 4,7 25,7 0,0
05-04-2024 13,4     16,5     19,9 6,5 45 72 90 1.017 1.019 1.021 E 3,5 16,1 0,0
04-04-2024 13,4     16,7     20,3 6,9 55 71 86 1.019 1.020 1.021 SW 3,4 17,7 0,0
03-04-2024 11,7     16,3     20,8 9,1 53 65 80 1.018 1.019 1.021 NW 3,5 14,5 0,0
02-04-2024 11,7     15,8     18,7 7,0 50 63 81 1.018 1.020 1.022 E 4,2 17,7 0,0
01-04-2024 9,7     14,4     18,0 8,3 50 67 77 1.006 1.013 1.019 SW 5,3 25,7 0,0
31-03-2024 9,6     13,6     17,3 7,7 49 77 91 998 1.000 1.006 SW 5,3 27,4 5,2
30-03-2024 10,3     14,3     17,1 6,8 49 66 84 997 999 1.000 SW 7,2 43,5 0,2
29-03-2024 12,9     15,9     18,9 6,0 50 77 83 996 1.000 1.004 NNW 4,3 30,6 0,0
28-03-2024 13,0     16,6     18,9 5,9 68 75 83 1.001 1.004 1.007 SW 6,3 35,4 0,0
27-03-2024 11,4     15,8     19,4 8,0 48 59 75 997 1.000 1.002 SW 11,7 46,7 0,0
26-03-2024 11,4     14,7     17,4 6,0 36 58 93 992 994 999 WSW 8,0 48,3 0,0
25-03-2024 14,4     15,6     18,3 3,9 69 81 93 995 1.002 1.008 ENE 6,6 45,1 3,6
24-03-2024 13,9     16,4     19,5 5,6 49 67 90 1.009 1.014 1.017 E 9,3 40,2 0,8
23-03-2024 15,1     18,3     21,7 6,6 37 54 72 1.017 1.018 1.020 NW 6,8 32,2 0,0
22-03-2024 15,7     18,7     24,1 8,4 32 55 71 1.017 1.019 1.021 E 5,3 27,4 0,0
21-03-2024 17,6     22,1     25,9 8,3 36 48 74 1.015 1.019 1.022 E 10,6 53,1 0,0
20-03-2024 12,8     18,3     22,9 10,1 40 67 90 1.014 1.015 1.018 E 6,3 37,0 0,0
19-03-2024 12,8     15,5     18,2 5,4 77 86 93 1.015 1.017 1.018 SW 3,4 16,1 0,0
18-03-2024 13,4     15,7     19,4 6,0 46 72 93 1.016 1.018 1.019 NW 3,2 16,1 0,0
17-03-2024 13,2     17,0     19,8 6,6 56 66 79 1.019 1.022 1.025 SW 3,4 16,1 0,0
16-03-2024 12,4     16,9     20,7 8,3 57 69 81 1.022 1.024 1.026 NW 3,2 16,1 0,0
Últims 13 mesos disponibles
03/2024 7,2 11,7 17,6 15,5 15,3 19,0 25,9 18,7 38 64 86 994 1.012 1.024 SW 6,5 53,1 12,0
02/2024 7,2 10,9 16,0 14,4 15,6 18,2 23,7 16,5 40 64 82 997 1.019 1.034 NW 5,9 69,2 5,6
01/2024 5,7 10,5 17,4 13,8 13,5 17,6 22,5 16,8 36 64 81 1.006 1.022 1.036 NW 5,4 83,7 7,8
12/2023 6,2 9,9 14,3 13,4 14,8 17,5 22,3 16,1 38 63 83 1.002 1.022 1.036 NW 4,4 57,9 2,4
11/2023 8,1 13,5 17,7 17,1 16,7 21,3 27,9 19,8 44 62 84 1.005 1.016 1.026 NW 5,3 91,7 0,0
10/2023 12,8 18,0 21,2 21,5 21,6 25,1 29,3 16,5 44 68 78 999 1.016 1.026 NW 5,2 59,5 0,8
09/2023 18,2 21,0 26,3 24,4 25,6 27,8 32,6 14,4 51 73 81 1.009 1.016 1.024 E 5,8 67,6 41,4
08/2023 20,7 23,6 25,4 27,2 27,8 30,4 32,8 12,1 41 70 80 1.009 1.015 1.019 E 5,6 45,1 12,0
07/2023 22,2 24,4 27,1 27,6 27,5 30,8 33,8 11,6 63 76 84 1.009 1.015 1.019 E 5,7 45,1 3,4
06/2023 16,2 20,4 24,0 23,8 23,1 27,1 30,3 14,1 52 72 82 1.009 1.014 1.022 E 5,0 45,1 5,8
05/2023 12,4 15,8 19,5 19,1 20,2 22,5 26,1 13,7 48 70 86 1.011 1.016 1.021 E 6,0 54,7 98,6
04/2023 9,6 13,2 20,6 17,3 17,8 21,4 31,9 22,3 45 65 83 1.009 1.016 1.021 ENE 5,0 56,3 1,8
03/2023 3,9 11,5 18,2 15,7 11,8 20,4 30,5 26,6 40 61 83 1.010 1.018 1.025 NW 5,1 54,7 2,8
Tots els anys disponibles
2023 2,5 15,7 27,1 19,2 11,0 23,0 33,8 31,3 32 67 86 999 1.017 1.036 NW 5,4 91,7 172,8
Temperatura (°C)
Humitat relativa (%)
Velocitat del vent i ràfega màxima (km/h)
Direcció del vent (°)
Pressió (hPa)
Precipitació (mm)
Nota sobre les dades: s'avisa a l'usuari de la provisionalitat i no oficialitat d'aquestes dades
Logo AVAMET blanc
Web allotjada a Sollutia
Llicència de Creative CommonsLa web d'AVAMET i els seus continguts estan subjectes a una llicència de
Reconeixement - No Comercial - Compartir igual
Avís legal - Política de privacitat - Política de cookies - Canviar configuració privacitat
NOVES ESTACIONS: Quart de Poblet - los Hornillos (Soci), Buñol - Partior (Soci), la Pobla de Farnals - Platja (Ajuntament/Soci), la Pobla de Farnals (Ajuntament/Soci), Calp (Ajuntament(Soci),  Carlet (Ajuntament/Soci), l'Alcora - la Foia (Ajuntament/Soci), Sant Vicent del Raspeig - las Ocas (Soci), Alcoi - IES Cotes Baixes (Soci), San Antonio de Benagéber - CELSAB (Soci), la Todolella (Ajuntament/Soci), Artana - Caseta de les Creus (Soci), Suera - Res. Espadà (Soci), Onda - Col·legi Virgen del Carmen (Soci), Catarroja - Col·legi Larrodé (Soci), València - Patraix (Soci), Ontinyent - Torre de Torús (Soci), Requena - El Rebollar (Casa Ejarque) (Soci), Elx - la Foia (Soci), Onda - el Salvador (Ajuntament/Soci), Paiporta (Ajuntament/Soci) - - -